createdAt,value
2022-12-08T00:01:57.566Z,9.40
2022-12-08T00:04:01.354Z,9.20
2022-12-08T00:06:24.940Z,9.00
2022-12-08T00:08:44.973Z,8.93
2022-12-08T00:10:49.626Z,9.10
2022-12-08T00:12:52.809Z,9.40
2022-12-08T00:14:55.535Z,9.03
2022-12-08T00:16:59.251Z,10.23
2022-12-08T00:19:02.014Z,10.17
2022-12-08T00:21:06.613Z,9.10
2022-12-08T00:23:09.375Z,10.17
2022-12-08T00:25:12.062Z,9.67
2022-12-08T00:27:17.942Z,9.83
2022-12-08T00:29:20.710Z,9.57
2022-12-08T00:31:23.424Z,9.83
2022-12-08T00:33:28.148Z,10.03
2022-12-08T00:35:31.022Z,9.93
2022-12-08T00:37:35.079Z,9.93
2022-12-08T00:39:37.789Z,9.70
2022-12-08T00:41:58.219Z,11.00
2022-12-08T00:44:00.926Z,10.10
2022-12-08T00:46:03.769Z,9.83
2022-12-08T00:48:07.729Z,10.67
2022-12-08T00:50:11.398Z,10.03
2022-12-08T00:52:14.117Z,10.17
2022-12-08T00:54:18.655Z,10.57
2022-12-08T00:56:21.336Z,10.40
2022-12-08T00:58:24.252Z,10.37
2022-12-08T01:00:27.063Z,10.57
2022-12-08T01:02:29.746Z,10.60
2022-12-08T01:04:32.478Z,10.07
2022-12-08T01:06:36.820Z,10.07
2022-12-08T01:08:40.469Z,10.70
2022-12-08T01:10:44.577Z,10.60
2022-12-08T01:12:47.555Z,11.40
2022-12-08T01:14:50.625Z,10.27
2022-12-08T01:16:53.773Z,11.83
2022-12-08T01:18:58.294Z,11.47
2022-12-08T01:21:04.318Z,11.67
2022-12-08T01:23:07.054Z,10.97
2022-12-08T01:25:10.235Z,11.40
2022-12-08T01:27:16.412Z,11.03
2022-12-08T01:29:19.486Z,11.07
2022-12-08T01:31:22.854Z,11.07
2022-12-08T01:33:26.264Z,11.63
2022-12-08T01:35:29.022Z,12.50
2022-12-08T01:37:31.806Z,11.60
2022-12-08T01:39:34.574Z,12.40
2022-12-08T01:41:38.960Z,12.37
2022-12-08T01:43:59.562Z,12.23
2022-12-08T01:46:02.547Z,11.93
2022-12-08T01:48:08.573Z,12.13
2022-12-08T01:50:13.876Z,12.40
2022-12-08T01:52:23.242Z,12.03
2022-12-08T01:54:28.898Z,12.13
2022-12-08T01:56:37.247Z,13.10
2022-12-08T01:58:43.661Z,12.67
2022-12-08T02:00:48.553Z,12.47
2022-12-08T02:02:55.313Z,11.67
2022-12-08T02:04:58.179Z,12.67
2022-12-08T02:07:07.675Z,12.33
2022-12-08T02:09:11.482Z,13.60
2022-12-08T02:11:14.995Z,12.70
2022-12-08T02:13:20.085Z,11.80
2022-12-08T02:15:32.595Z,12.43
2022-12-08T02:17:55.290Z,12.80
2022-12-08T02:20:40.892Z,12.23
2022-12-08T02:22:53.000Z,12.33
2022-12-08T02:25:04.450Z,13.33
2022-12-08T02:27:33.499Z,11.77
2022-12-08T02:30:22.854Z,12.87
2022-12-08T02:32:53.530Z,13.20
2022-12-08T02:35:00.584Z,12.80
2022-12-08T02:37:10.609Z,12.87
2022-12-08T02:39:25.629Z,12.63
2022-12-08T02:41:37.267Z,12.47
2022-12-08T02:43:44.825Z,13.43
2022-12-08T02:45:51.549Z,12.53
2022-12-08T02:47:55.015Z,13.07
2022-12-08T02:49:59.760Z,12.63
2022-12-08T02:52:06.967Z,13.47
2022-12-08T02:54:10.068Z,12.83
2022-12-08T02:56:24.865Z,12.40
2022-12-08T02:58:48.098Z,13.63
2022-12-08T03:01:05.826Z,13.60
2022-12-08T03:03:14.218Z,13.77
2022-12-08T03:05:30.312Z,13.63
2022-12-08T03:07:37.384Z,13.93
2022-12-08T03:09:46.110Z,13.37
2022-12-08T03:11:53.938Z,13.77
2022-12-08T03:14:00.973Z,13.80
2022-12-08T03:16:07.540Z,14.10
2022-12-08T03:18:13.891Z,13.93
2022-12-08T03:20:23.533Z,13.90
2022-12-08T03:22:28.558Z,13.43
2022-12-08T03:24:33.735Z,14.00
2022-12-08T03:26:44.470Z,13.73
2022-12-08T03:28:48.464Z,14.80
2022-12-08T03:30:58.009Z,14.27
2022-12-08T03:33:07.839Z,15.13
2022-12-08T03:35:15.035Z,15.60
2022-12-08T03:37:19.704Z,14.77
2022-12-08T03:39:22.714Z,14.90
2022-12-08T03:41:25.766Z,14.57
2022-12-08T03:43:30.106Z,14.83
2022-12-08T03:45:35.330Z,14.80
2022-12-08T03:47:40.640Z,14.97
2022-12-08T03:49:46.910Z,15.20
2022-12-08T03:51:53.467Z,16.57
2022-12-08T03:53:57.952Z,16.67
2022-12-08T03:56:01.466Z,16.60
2022-12-08T03:58:08.388Z,16.70
2022-12-08T04:00:17.286Z,16.30
2022-12-08T04:02:20.592Z,16.80
2022-12-08T04:04:23.366Z,16.70
2022-12-08T04:06:27.371Z,18.27
2022-12-08T04:08:31.860Z,17.03
2022-12-08T04:10:41.810Z,18.10
2022-12-08T04:12:45.486Z,19.10
2022-12-08T04:14:51.698Z,17.53
2022-12-08T04:16:56.547Z,18.47
2022-12-08T04:19:02.785Z,18.50
2022-12-08T04:21:06.467Z,18.93
2022-12-08T04:23:16.923Z,18.97
2022-12-08T04:25:23.489Z,18.63
2022-12-08T04:27:27.888Z,18.50
2022-12-08T04:29:30.943Z,19.77
2022-12-08T04:31:36.056Z,19.17
2022-12-08T04:33:39.910Z,20.00
2022-12-08T04:35:46.347Z,20.13
2022-12-08T04:37:51.874Z,19.47
2022-12-08T04:39:54.932Z,19.20
2022-12-08T04:41:58.431Z,20.17
2022-12-08T04:44:15.583Z,20.20
2022-12-08T04:46:18.840Z,20.77
2022-12-08T04:48:21.783Z,20.53
2022-12-08T04:50:24.763Z,21.53
2022-12-08T04:52:27.746Z,20.97
2022-12-08T04:54:31.176Z,21.37
2022-12-08T04:56:34.020Z,21.30
2022-12-08T04:58:37.070Z,22.17
2022-12-08T05:00:41.750Z,22.83
2022-12-08T05:02:44.568Z,21.40
2022-12-08T05:04:47.370Z,21.90
2022-12-08T05:06:50.186Z,22.53
2022-12-08T05:08:53.197Z,22.50
2022-12-08T05:11:02.247Z,22.27
2022-12-08T05:13:08.277Z,21.60
2022-12-08T05:15:11.238Z,22.77
2022-12-08T05:17:19.183Z,22.10
2022-12-08T05:19:21.995Z,23.27
2022-12-08T05:21:25.241Z,23.00
2022-12-08T05:23:28.530Z,23.77
2022-12-08T05:25:31.785Z,24.60
2022-12-08T05:27:37.094Z,22.87
2022-12-08T05:29:39.867Z,22.93
2022-12-08T05:31:42.964Z,23.17
2022-12-08T05:33:47.970Z,24.67
2022-12-08T05:35:53.095Z,24.47
2022-12-08T05:37:56.013Z,23.70
2022-12-08T05:39:58.750Z,24.80
2022-12-08T05:42:01.551Z,24.47
2022-12-08T05:44:04.380Z,23.07
2022-12-08T05:46:09.687Z,24.07
2022-12-08T05:48:16.268Z,24.67
2022-12-08T05:50:21.056Z,25.23
2022-12-08T05:52:23.750Z,24.67
2022-12-08T05:54:27.166Z,23.43
2022-12-08T05:56:32.314Z,24.43
2022-12-08T05:58:37.286Z,24.67
2022-12-08T06:00:42.576Z,23.20
2022-12-08T06:02:45.976Z,23.17
2022-12-08T06:04:51.513Z,23.20
2022-12-08T06:06:55.678Z,23.73
2022-12-08T06:08:58.730Z,24.40
2022-12-08T06:11:01.646Z,22.83
2022-12-08T06:13:04.477Z,23.40
2022-12-08T06:15:08.222Z,22.73
2022-12-08T06:17:11.253Z,23.57
2022-12-08T06:19:14.582Z,23.07
2022-12-08T06:21:18.596Z,22.13
2022-12-08T06:23:22.961Z,21.83
2022-12-08T06:25:26.250Z,21.80
2022-12-08T06:27:29.174Z,22.67
2022-12-08T06:29:32.142Z,21.90
2022-12-08T06:31:34.976Z,21.70
2022-12-08T06:33:38.291Z,22.23
2022-12-08T06:35:40.985Z,20.87
2022-12-08T06:37:43.706Z,22.13
2022-12-08T06:39:47.943Z,21.37
2022-12-08T06:42:08.244Z,20.90
2022-12-08T06:44:10.950Z,21.40
2022-12-08T06:46:16.479Z,20.30
2022-12-08T06:48:19.952Z,19.97
2022-12-08T06:50:22.721Z,21.03
2022-12-08T06:52:25.747Z,21.57
2022-12-08T06:54:28.649Z,20.70
2022-12-08T06:56:32.703Z,19.80
2022-12-08T06:58:35.705Z,20.60
2022-12-08T07:00:38.674Z,19.60
2022-12-08T07:02:43.526Z,20.23
2022-12-08T07:04:46.574Z,19.70
2022-12-08T07:06:49.321Z,19.63
2022-12-08T07:08:54.541Z,20.50
2022-12-08T07:10:57.314Z,19.10
2022-12-08T07:13:01.804Z,20.37
2022-12-08T07:15:04.989Z,20.50
2022-12-08T07:17:07.900Z,20.20
2022-12-08T07:19:12.094Z,19.07
2022-12-08T07:21:15.819Z,20.67
2022-12-08T07:23:18.642Z,19.97
2022-12-08T07:25:21.631Z,20.90
2022-12-08T07:27:24.322Z,19.63
2022-12-08T07:29:28.540Z,18.57
2022-12-08T07:31:50.673Z,21.40
2022-12-08T07:33:54.744Z,21.00
2022-12-08T07:35:58.819Z,19.23
2022-12-08T07:38:01.647Z,20.43
2022-12-08T07:40:05.938Z,19.37
2022-12-08T07:42:08.803Z,19.47
2022-12-08T07:44:12.701Z,19.77
2022-12-08T07:46:19.081Z,19.60
2022-12-08T07:48:22.303Z,19.43
2022-12-08T07:50:25.058Z,20.33
2022-12-08T07:52:27.797Z,17.70
2022-12-08T07:54:30.697Z,18.93
2022-12-08T07:56:33.466Z,19.60
2022-12-08T07:58:36.622Z,18.40
2022-12-08T08:00:39.566Z,19.27
2022-12-08T08:02:44.086Z,18.20
2022-12-08T08:04:50.409Z,19.83
2022-12-08T08:06:53.172Z,19.47
2022-12-08T08:08:55.931Z,17.77
2022-12-08T08:10:58.711Z,17.40
2022-12-08T08:13:01.876Z,17.63
2022-12-08T08:15:07.268Z,17.50
2022-12-08T08:17:10.068Z,16.93
2022-12-08T08:19:14.191Z,16.30
2022-12-08T08:23:40.570Z,16.13
2022-12-08T08:25:43.295Z,16.57
2022-12-08T08:27:46.414Z,16.27
2022-12-08T08:29:49.204Z,15.13
2022-12-08T08:31:51.975Z,16.03
2022-12-08T08:33:54.931Z,14.73
2022-12-08T08:35:59.376Z,14.73
2022-12-08T08:38:02.553Z,15.37
2022-12-08T08:40:06.900Z,14.83
2022-12-08T08:42:09.863Z,14.63
2022-12-08T08:44:14.339Z,14.53
2022-12-08T08:46:17.179Z,14.00
2022-12-08T08:48:20.099Z,14.20
2022-12-08T08:50:22.875Z,14.97
2022-12-08T08:52:26.951Z,14.73
2022-12-08T08:54:30.134Z,14.03
2022-12-08T08:56:32.892Z,14.53
2022-12-08T08:58:35.628Z,13.70
2022-12-08T09:00:38.483Z,13.77
2022-12-08T09:02:44.529Z,13.57
2022-12-08T09:04:48.212Z,14.13
2022-12-08T09:06:51.156Z,13.60
2022-12-08T09:08:55.183Z,13.00
2022-12-08T09:10:58.145Z,13.63
2022-12-08T09:13:00.857Z,14.47
2022-12-08T09:15:03.643Z,14.30
2022-12-08T09:17:06.924Z,14.93
2022-12-08T09:19:10.092Z,14.70
2022-12-08T09:21:16.370Z,15.47
2022-12-08T09:23:19.130Z,16.20
2022-12-08T09:25:23.201Z,16.37
2022-12-08T09:27:25.923Z,15.07
2022-12-08T09:29:35.432Z,15.53
2022-12-08T09:31:39.297Z,15.60
2022-12-08T09:33:43.266Z,15.17
2022-12-08T09:35:46.340Z,14.80
2022-12-08T09:37:49.106Z,15.13
2022-12-08T09:39:51.788Z,14.67
2022-12-08T09:42:01.059Z,14.77
2022-12-08T09:44:19.907Z,14.40
2022-12-08T09:46:22.998Z,15.77
2022-12-08T09:48:32.909Z,14.33
2022-12-08T09:50:40.250Z,14.43
2022-12-08T09:52:46.515Z,13.77
2022-12-08T09:54:49.344Z,14.30
2022-12-08T09:56:56.264Z,14.40
2022-12-08T09:59:03.734Z,14.00
2022-12-08T10:01:09.371Z,13.67
2022-12-08T10:03:16.659Z,13.43
2022-12-08T10:05:21.210Z,13.43
2022-12-08T10:07:30.880Z,13.50
2022-12-08T10:09:41.099Z,13.40
2022-12-08T10:11:52.237Z,13.27
2022-12-08T10:14:04.794Z,12.47
2022-12-08T10:16:26.563Z,13.07
2022-12-08T10:18:33.619Z,12.53
2022-12-08T10:20:39.762Z,12.43
2022-12-08T10:22:45.024Z,11.80
2022-12-08T10:24:55.790Z,12.57
2022-12-08T10:26:58.864Z,11.60
2022-12-08T10:29:04.399Z,11.67
2022-12-08T10:31:07.341Z,11.67
2022-12-08T10:33:15.381Z,11.93
2022-12-08T10:35:21.033Z,10.77
2022-12-08T10:37:23.739Z,12.10
2022-12-08T10:39:32.312Z,11.30
2022-12-08T10:41:35.051Z,11.30
2022-12-08T10:43:40.493Z,11.90
2022-12-08T10:45:44.907Z,10.43
2022-12-08T10:47:57.571Z,13.30
2022-12-08T10:50:20.263Z,12.27
2022-12-08T10:52:24.604Z,10.30
2022-12-08T10:54:30.545Z,10.67
2022-12-08T10:56:34.077Z,13.00
2022-12-08T10:58:40.510Z,11.67
2022-12-08T11:00:45.158Z,11.63
2022-12-08T11:03:02.062Z,10.67
2022-12-08T11:05:05.062Z,10.57
2022-12-08T11:07:11.638Z,10.53
2022-12-08T11:09:34.293Z,9.67
2022-12-08T11:11:45.602Z,10.60
2022-12-08T11:13:51.408Z,10.43
2022-12-08T11:15:57.077Z,10.17
2022-12-08T11:18:03.051Z,10.73
2022-12-08T11:20:22.402Z,11.57
2022-12-08T11:22:27.552Z,11.43
2022-12-08T11:24:36.044Z,9.70
2022-12-08T11:26:40.525Z,11.27
2022-12-08T11:28:43.382Z,11.67
2022-12-08T11:30:50.580Z,10.97
2022-12-08T11:32:57.311Z,10.30
2022-12-08T11:35:03.458Z,10.80
2022-12-08T11:37:08.980Z,10.97
2022-12-08T11:39:13.972Z,10.10
2022-12-08T11:41:19.874Z,11.30
2022-12-08T11:43:28.116Z,11.00
2022-12-08T11:45:35.196Z,10.63
2022-12-08T11:47:52.589Z,10.87
2022-12-08T11:50:16.672Z,11.67
2022-12-08T11:52:28.657Z,10.63
2022-12-08T11:54:35.080Z,10.30
2022-12-08T11:56:40.104Z,10.73
2022-12-08T11:58:46.818Z,10.73
2022-12-08T12:00:50.709Z,10.40
2022-12-08T12:03:00.588Z,10.23
2022-12-08T12:05:09.249Z,10.17
2022-12-08T12:07:42.417Z,13.27
2022-12-08T12:10:07.091Z,10.23
2022-12-08T12:12:22.207Z,7.30
2022-12-08T12:14:41.491Z,10.47
2022-12-08T12:17:12.518Z,4.20
2022-12-08T12:19:17.774Z,4.10
2022-12-08T12:21:24.818Z,4.13
2022-12-08T12:23:37.068Z,3.20
2022-12-08T12:25:49.631Z,3.07
2022-12-08T12:27:57.608Z,3.30
2022-12-08T12:30:03.925Z,3.50
2022-12-08T12:32:09.611Z,3.17
2022-12-08T12:34:17.186Z,2.83
2022-12-08T12:36:22.180Z,2.77
2022-12-08T12:38:46.566Z,3.00
2022-12-08T12:40:49.810Z,3.03
2022-12-08T12:43:14.479Z,3.33
2022-12-08T12:45:30.565Z,2.70
2022-12-08T12:47:51.028Z,2.80
2022-12-08T12:50:36.937Z,2.70
2022-12-08T12:52:48.394Z,2.87
2022-12-08T12:55:24.589Z,3.20
2022-12-08T12:57:37.173Z,3.33
2022-12-08T12:59:47.915Z,3.13
2022-12-08T13:01:56.520Z,3.07
2022-12-08T13:04:07.147Z,3.20
2022-12-08T13:06:14.747Z,3.07
2022-12-08T13:08:24.949Z,3.30
2022-12-08T13:10:31.969Z,2.77
2022-12-08T13:12:35.104Z,2.90
2022-12-08T13:14:45.439Z,3.50
2022-12-08T13:16:56.244Z,3.40
2022-12-08T13:19:02.233Z,3.07
2022-12-08T13:21:15.061Z,3.50
2022-12-08T13:23:30.813Z,3.40
2022-12-08T13:26:14.926Z,3.00
2022-12-08T13:28:27.924Z,3.53
2022-12-08T13:30:44.600Z,3.33
2022-12-08T13:33:27.995Z,3.60
2022-12-08T13:35:21.342Z,3.27
2022-12-08T13:37:29.391Z,3.07
2022-12-08T13:39:42.337Z,3.50
2022-12-08T13:41:54.132Z,2.93
2022-12-08T13:58:50.763Z,3.70
2022-12-08T14:01:05.438Z,3.50
2022-12-08T14:03:14.027Z,3.57
2022-12-08T14:05:19.780Z,3.63
2022-12-08T14:07:29.554Z,3.60
2022-12-08T14:09:35.989Z,3.27
2022-12-08T14:11:42.186Z,3.70
2022-12-08T14:13:45.064Z,3.63
2022-12-08T14:15:47.806Z,3.97
2022-12-08T14:17:53.250Z,3.40
2022-12-08T14:19:58.977Z,3.43
2022-12-08T14:22:03.999Z,3.67
2022-12-08T14:24:07.031Z,3.07
2022-12-08T14:26:12.809Z,3.60
2022-12-08T14:28:17.934Z,3.50
2022-12-08T14:30:25.946Z,3.80
2022-12-08T14:32:31.333Z,3.40
2022-12-08T14:34:41.030Z,3.17
2022-12-08T14:36:43.936Z,3.10
2022-12-08T14:38:47.008Z,3.83
2022-12-08T14:41:00.852Z,4.57
2022-12-08T14:43:15.251Z,4.67
2022-12-08T14:45:20.368Z,4.70
2022-12-08T14:47:23.181Z,5.27
2022-12-08T14:49:35.570Z,5.07
2022-12-08T14:51:40.782Z,5.40
2022-12-08T14:53:46.376Z,5.30
2022-12-08T14:55:50.018Z,5.10
2022-12-08T14:57:52.770Z,5.73
2022-12-08T14:59:55.536Z,5.30
2022-12-08T15:02:22.666Z,5.53
2022-12-08T15:04:28.443Z,5.27
2022-12-08T15:06:31.634Z,5.43
2022-12-08T15:08:35.871Z,5.47
2022-12-08T15:10:39.849Z,6.07
2022-12-08T15:13:01.647Z,5.60
2022-12-08T15:15:17.001Z,6.73
2022-12-08T15:17:35.370Z,5.63
2022-12-08T15:19:38.914Z,5.67
2022-12-08T15:21:41.764Z,5.10
2022-12-08T15:23:46.827Z,5.17
2022-12-08T15:25:50.079Z,4.93
2022-12-08T15:27:53.970Z,5.80
2022-12-08T15:29:56.910Z,5.43
2022-12-08T15:32:02.329Z,5.33
2022-12-08T15:34:06.448Z,5.43
2022-12-08T15:36:10.351Z,5.20
2022-12-08T15:38:20.102Z,5.33
2022-12-08T15:40:25.850Z,4.73
2022-12-08T15:42:28.610Z,5.27
2022-12-08T15:44:32.852Z,4.97
2022-12-08T15:46:36.113Z,5.07
2022-12-08T15:48:39.020Z,5.77
2022-12-08T15:50:43.087Z,4.73
2022-12-08T15:52:45.999Z,5.00
2022-12-08T15:54:49.505Z,5.13
2022-12-08T15:57:18.651Z,6.37
2022-12-08T15:59:20.612Z,7.50
2022-12-08T16:01:23.642Z,7.30
2022-12-08T16:04:13.827Z,7.10
2022-12-08T16:06:20.584Z,7.27
2022-12-08T16:10:45.498Z,6.47
2022-12-08T16:15:51.642Z,6.30
2022-12-08T16:17:56.734Z,6.73
2022-12-08T16:20:00.518Z,6.37
2022-12-08T16:22:45.068Z,6.80
2022-12-08T16:24:27.484Z,7.33
2022-12-08T16:27:42.583Z,7.03
2022-12-08T16:28:54.645Z,6.83
2022-12-08T16:30:58.719Z,6.77
2022-12-08T16:33:01.665Z,6.67
2022-12-08T16:35:05.392Z,7.10
2022-12-08T16:37:14.873Z,6.20
2022-12-08T16:39:17.688Z,6.37
2022-12-08T16:41:37.984Z,6.70
2022-12-08T16:43:41.223Z,6.00
2022-12-08T16:45:45.115Z,6.60
2022-12-08T16:47:50.450Z,5.60
2022-12-08T16:49:53.183Z,5.47
2022-12-08T16:51:56.063Z,5.80
2022-12-08T16:54:00.187Z,5.70
2022-12-08T16:56:02.896Z,5.67
2022-12-08T16:58:05.971Z,5.30
2022-12-08T17:00:12.950Z,6.20
2022-12-08T17:02:16.687Z,4.80
2022-12-08T17:04:34.920Z,5.33
2022-12-08T17:06:37.723Z,5.43
2022-12-08T17:08:41.466Z,5.20
2022-12-08T17:11:05.837Z,5.97
2022-12-08T17:13:09.006Z,5.67
2022-12-08T17:15:14.205Z,5.23
2022-12-08T17:17:16.948Z,5.37
2022-12-08T17:19:19.793Z,5.60
2022-12-08T17:21:22.603Z,6.23
2022-12-08T17:23:25.710Z,6.30
2022-12-08T17:25:28.699Z,5.80
2022-12-08T17:27:32.820Z,6.00
2022-12-08T17:29:35.819Z,5.43
2022-12-08T17:31:38.868Z,5.53
2022-12-08T17:33:42.121Z,5.30
2022-12-08T17:35:48.425Z,4.20
2022-12-08T17:37:51.112Z,3.77
2022-12-08T17:39:54.018Z,3.47
2022-12-08T17:41:56.817Z,3.90
2022-12-08T17:44:00.916Z,3.70
2022-12-08T17:46:04.431Z,4.10
2022-12-08T17:48:07.498Z,4.17
2022-12-08T17:50:10.721Z,4.17
2022-12-08T17:52:13.679Z,4.83
2022-12-08T17:54:17.356Z,4.40
2022-12-08T17:56:22.223Z,4.50
2022-12-08T17:58:25.913Z,4.10
2022-12-08T18:00:30.260Z,4.13
2022-12-08T18:02:33.549Z,4.27
2022-12-08T18:04:36.318Z,3.93
2022-12-08T18:06:40.320Z,3.80
2022-12-08T18:08:43.016Z,3.67
2022-12-08T18:10:45.755Z,3.87
2022-12-08T18:12:48.509Z,4.30
2022-12-08T18:14:52.164Z,4.63
2022-12-08T18:16:56.282Z,5.13
2022-12-08T18:18:59.076Z,5.40
2022-12-08T18:21:01.782Z,5.90
2022-12-08T18:23:06.579Z,5.90
2022-12-08T18:25:10.645Z,5.60
2022-12-08T18:27:13.315Z,5.80
2022-12-08T18:29:16.037Z,6.03
2022-12-08T18:31:21.224Z,5.73
2022-12-08T18:33:25.417Z,5.60
2022-12-08T18:35:28.705Z,6.07
2022-12-08T18:37:31.524Z,6.20
2022-12-08T18:39:34.927Z,7.63
2022-12-08T18:41:37.804Z,7.27
2022-12-08T18:43:41.059Z,7.63
2022-12-08T18:45:44.006Z,8.37
2022-12-08T18:47:47.039Z,9.37
2022-12-08T18:49:51.091Z,9.30
2022-12-08T18:51:53.822Z,9.70
2022-12-08T18:53:56.843Z,9.70
2022-12-08T18:55:59.582Z,9.33
2022-12-08T18:58:02.369Z,10.17
2022-12-08T19:00:06.392Z,11.00
2022-12-08T19:02:11.228Z,10.20
2022-12-08T19:04:31.864Z,11.03
2022-12-08T19:06:40.419Z,10.17
2022-12-08T19:08:43.613Z,9.70
2022-12-08T19:10:46.343Z,10.17
2022-12-08T19:12:50.716Z,10.33
2022-12-08T19:14:53.770Z,10.17
2022-12-08T19:16:57.267Z,10.53
2022-12-08T19:19:00.168Z,10.53
2022-12-08T19:21:02.968Z,10.07
2022-12-08T19:23:07.136Z,10.60
2022-12-08T19:25:10.220Z,9.70
2022-12-08T19:27:12.999Z,9.97
2022-12-08T19:29:19.968Z,9.50
2022-12-08T19:31:24.029Z,9.73
2022-12-08T19:33:36.901Z,9.30
2022-12-08T19:35:39.692Z,9.30
2022-12-08T19:37:42.476Z,8.70
2022-12-08T19:40:10.262Z,9.10
2022-12-08T19:42:34.202Z,8.63
2022-12-08T19:44:55.416Z,9.20
2022-12-08T19:46:58.928Z,9.10
2022-12-08T19:49:03.344Z,8.37
2022-12-08T19:51:06.579Z,8.80
2022-12-08T19:53:11.898Z,8.33
2022-12-08T19:55:17.152Z,8.97
2022-12-08T19:57:20.368Z,9.40
2022-12-08T19:59:26.055Z,9.03
2022-12-08T20:01:28.903Z,9.53
2022-12-08T20:03:32.029Z,9.87
2022-12-08T20:05:36.658Z,9.43
2022-12-08T20:07:39.777Z,9.33
2022-12-08T20:09:42.838Z,9.63
2022-12-08T20:11:47.215Z,9.20
2022-12-08T20:13:50.049Z,9.70
2022-12-08T20:15:56.023Z,9.77
2022-12-08T20:17:58.847Z,9.63
2022-12-08T20:20:06.851Z,10.70
2022-12-08T20:22:10.460Z,10.37
2022-12-08T20:24:13.434Z,11.47
2022-12-08T20:26:18.758Z,10.80
2022-12-08T20:28:22.834Z,9.87
2022-12-08T20:30:25.630Z,10.07
2022-12-08T20:32:28.557Z,10.47
2022-12-08T20:34:32.804Z,10.47
2022-12-08T20:36:36.021Z,9.40
2022-12-08T20:38:38.760Z,8.87
2022-12-08T20:40:43.704Z,8.97
2022-12-08T20:42:46.843Z,10.00
2022-12-08T20:44:50.920Z,9.67
2022-12-08T20:46:53.799Z,10.10
2022-12-08T20:48:57.656Z,10.87
2022-12-08T20:51:00.606Z,10.00
2022-12-08T20:53:03.443Z,10.93
2022-12-08T20:55:07.902Z,11.67
2022-12-08T20:57:10.817Z,11.30
2022-12-08T20:59:16.901Z,13.50
2022-12-08T21:01:23.174Z,13.93
2022-12-08T21:03:26.412Z,14.70
2022-12-08T21:05:30.030Z,12.77
2022-12-08T21:07:33.696Z,12.90
2022-12-08T21:09:36.808Z,12.43
2022-12-08T21:11:39.863Z,13.17
2022-12-08T21:13:43.113Z,12.60
2022-12-08T21:15:46.440Z,10.13
2022-12-08T21:17:50.862Z,9.70
2022-12-08T21:19:53.990Z,9.77
2022-12-08T21:21:57.041Z,9.67
2022-12-08T21:24:01.044Z,10.67
2022-12-08T21:26:04.783Z,10.07
2022-12-08T21:28:07.491Z,10.33
2022-12-08T21:30:11.779Z,9.70
2022-12-08T21:32:14.922Z,10.43
2022-12-08T21:34:19.442Z,9.63
2022-12-08T21:36:23.604Z,9.83
2022-12-08T21:38:28.926Z,9.87
2022-12-08T21:40:31.756Z,9.93
2022-12-08T21:42:46.808Z,9.70
2022-12-08T21:44:49.992Z,9.83
2022-12-08T21:46:53.418Z,9.50
2022-12-08T21:48:56.697Z,10.03
2022-12-08T21:51:06.484Z,10.07
2022-12-08T21:53:10.820Z,9.87
2022-12-08T21:55:16.370Z,9.73
2022-12-08T21:57:19.656Z,10.33
2022-12-08T21:59:22.615Z,9.80
2022-12-08T22:01:25.731Z,9.43
2022-12-08T22:03:30.037Z,9.53
2022-12-08T22:05:33.450Z,9.30
2022-12-08T22:07:41.254Z,10.37
2022-12-08T22:09:44.179Z,10.43
2022-12-08T22:11:47.637Z,10.00
2022-12-08T22:13:50.558Z,10.67
2022-12-08T22:15:57.344Z,10.53
2022-12-08T22:18:00.543Z,10.90
2022-12-08T22:20:04.518Z,10.53
2022-12-08T22:22:07.976Z,11.20
2022-12-08T22:24:12.285Z,9.90
2022-12-08T22:26:15.199Z,8.50
2022-12-08T22:28:18.202Z,7.53
2022-12-08T22:30:21.519Z,7.47
2022-12-08T22:32:24.560Z,7.43
2022-12-08T22:34:27.504Z,7.57
2022-12-08T22:36:30.459Z,7.80
2022-12-08T22:38:34.577Z,7.40
2022-12-08T22:40:41.455Z,7.53
2022-12-08T22:42:44.612Z,7.47
2022-12-08T22:44:47.674Z,7.63
2022-12-08T22:46:50.915Z,7.83
2022-12-08T22:48:56.684Z,7.57
2022-12-08T22:51:00.417Z,7.93
2022-12-08T22:53:03.762Z,8.23
2022-12-08T22:55:07.671Z,9.50
2022-12-08T22:57:11.913Z,9.20
2022-12-08T22:59:14.704Z,9.97
2022-12-08T23:01:24.118Z,10.37
2022-12-08T23:03:26.913Z,9.53
2022-12-08T23:05:33.911Z,9.50
2022-12-08T23:07:37.166Z,8.87
2022-12-08T23:09:40.217Z,9.03
2022-12-08T23:11:44.205Z,8.47
2022-12-08T23:13:48.689Z,9.37
2022-12-08T23:15:51.471Z,8.73
2022-12-08T23:17:54.534Z,8.53
2022-12-08T23:19:58.046Z,7.87
2022-12-08T23:22:01.153Z,8.63
2022-12-08T23:24:04.156Z,8.33
2022-12-08T23:26:16.189Z,8.57
2022-12-08T23:28:18.944Z,9.70
2022-12-08T23:30:23.143Z,9.63
2022-12-08T23:32:26.765Z,10.77
2022-12-08T23:34:29.661Z,9.30
2022-12-08T23:36:32.552Z,11.60
2022-12-08T23:38:35.423Z,10.50
2022-12-08T23:40:38.438Z,11.30
2022-12-08T23:42:41.551Z,12.50
2022-12-08T23:44:44.308Z,13.17
2022-12-08T23:46:48.535Z,13.27
2022-12-08T23:48:52.268Z,12.33
2022-12-08T23:50:56.911Z,14.57
2022-12-08T23:52:59.767Z,13.67
2022-12-08T23:55:02.672Z,12.47
2022-12-08T23:57:05.479Z,14.13
2022-12-08T23:59:08.271Z,14.47
